createdAt,value
2022-10-06T00:02:36.334Z,101010.46
2022-10-06T00:07:40.949Z,101008.10
2022-10-06T00:12:50.058Z,101005.95
2022-10-06T00:17:56.955Z,101000.34
2022-10-06T00:23:03.331Z,100997.02
2022-10-06T00:28:10.404Z,100996.83
2022-10-06T00:33:18.007Z,101002.88
2022-10-06T00:38:25.573Z,101002.29
2022-10-06T00:43:51.064Z,100997.63
2022-10-06T00:49:02.302Z,100989.09
2022-10-06T00:54:07.408Z,100992.81
2022-10-06T00:59:15.618Z,100993.02
2022-10-06T01:04:24.043Z,100993.69
2022-10-06T01:09:31.578Z,100993.64
2022-10-06T01:14:39.875Z,100990.30
2022-10-06T01:19:52.500Z,100985.09
2022-10-06T01:24:58.756Z,100981.96
2022-10-06T01:30:07.663Z,100977.83
2022-10-06T01:35:13.647Z,100970.61
2022-10-06T01:40:19.682Z,100968.71
2022-10-06T01:45:25.503Z,100965.27
2022-10-06T01:50:31.410Z,100967.36
2022-10-06T01:55:37.274Z,100966.76
2022-10-06T02:00:44.940Z,100966.14
2022-10-06T02:05:50.970Z,100966.52
2022-10-06T02:10:56.985Z,100965.53
2022-10-06T02:16:06.763Z,100963.02
2022-10-06T02:21:17.367Z,100969.36
2022-10-06T02:26:23.623Z,100969.57
2022-10-06T02:31:31.144Z,100973.54
2022-10-06T02:36:37.656Z,100976.14
2022-10-06T02:41:44.369Z,100978.42
2022-10-06T02:46:52.730Z,100979.42
2022-10-06T02:51:58.856Z,100978.92
2022-10-06T02:57:05.869Z,100982.41
2022-10-06T03:02:11.919Z,100985.80
2022-10-06T03:07:18.004Z,100984.77
2022-10-06T03:12:24.302Z,100988.40
2022-10-06T03:17:31.137Z,100993.41
2022-10-06T03:22:37.898Z,100993.61
2022-10-06T03:27:44.670Z,100997.11
2022-10-06T03:32:52.031Z,100996.83
2022-10-06T03:38:00.559Z,100999.78
2022-10-06T03:43:09.166Z,101001.20
2022-10-06T03:48:15.486Z,101000.89
2022-10-06T03:53:25.602Z,101001.82
2022-10-06T03:58:33.154Z,101008.45
2022-10-06T04:03:40.137Z,101011.24
2022-10-06T04:08:47.725Z,101016.29
2022-10-06T04:13:56.789Z,101015.64
2022-10-06T04:19:06.357Z,101012.02
2022-10-06T04:24:13.125Z,101015.50
2022-10-06T04:29:21.822Z,101019.45
2022-10-06T04:34:32.150Z,101017.70
2022-10-06T04:39:38.298Z,101020.56
2022-10-06T04:44:45.317Z,101022.59
2022-10-06T04:49:51.472Z,101026.54
2022-10-06T04:54:57.732Z,101036.21
2022-10-06T05:00:22.728Z,101044.22
2022-10-06T05:05:29.492Z,101049.30
2022-10-06T05:10:35.960Z,101053.82
2022-10-06T05:15:42.358Z,101062.86
2022-10-06T05:20:57.119Z,101071.14
2022-10-06T05:26:03.146Z,101073.46
2022-10-06T05:31:12.768Z,101070.88
2022-10-06T05:36:21.063Z,101074.72
2022-10-06T05:41:30.137Z,101076.16
2022-10-06T05:46:38.267Z,101085.92
2022-10-06T05:51:51.035Z,101093.92
2022-10-06T05:57:01.801Z,101098.98
2022-10-06T06:02:10.405Z,101109.29
2022-10-06T06:07:18.451Z,101119.60
2022-10-06T06:12:25.150Z,101131.06
2022-10-06T06:18:06.051Z,101137.61
2022-10-06T06:23:12.241Z,101141.05
2022-10-06T06:28:18.758Z,101145.52
2022-10-06T06:33:24.773Z,101159.16
2022-10-06T06:38:32.325Z,101165.34
2022-10-06T06:43:39.416Z,101174.02
2022-10-06T06:49:04.703Z,101187.85
2022-10-06T06:54:13.540Z,101198.79
2022-10-06T06:59:22.417Z,101204.80
2022-10-06T07:04:32.836Z,101215.22
2022-10-06T07:09:39.174Z,101225.89
2022-10-06T07:15:09.071Z,101232.83
2022-10-06T07:20:37.665Z,101236.70
2022-10-06T07:25:43.689Z,101238.11
2022-10-06T07:30:50.519Z,101237.71
2022-10-06T07:35:59.220Z,101235.17
2022-10-06T07:41:18.812Z,101244.70
2022-10-06T07:46:35.402Z,101257.67
2022-10-06T07:51:45.342Z,101255.63
2022-10-06T07:56:51.473Z,101261.81
2022-10-06T08:01:57.422Z,101254.05
2022-10-06T08:07:03.299Z,101264.62
2022-10-06T08:12:27.869Z,101265.77
2022-10-06T08:17:34.243Z,101273.84
2022-10-06T08:22:41.149Z,101277.05
2022-10-06T08:27:53.262Z,101274.52
2022-10-06T08:32:59.555Z,101265.36
2022-10-06T08:38:05.424Z,101269.19
2022-10-06T08:43:16.775Z,101271.58
2022-10-06T08:48:26.818Z,101268.80
2022-10-06T08:53:39.379Z,101276.53
2022-10-06T08:58:54.044Z,101288.44
2022-10-06T09:04:05.103Z,101294.83
2022-10-06T09:09:21.375Z,101304.23
2022-10-06T09:14:37.588Z,101318.79
2022-10-06T09:19:47.863Z,101335.04
2022-10-06T09:24:57.437Z,101346.45
2022-10-06T09:30:04.706Z,101353.14
2022-10-06T09:35:18.903Z,101348.29
2022-10-06T09:40:38.494Z,101351.81
2022-10-06T09:45:44.489Z,101352.30
2022-10-06T09:51:10.784Z,101358.39
2022-10-06T09:56:22.041Z,101366.66
2022-10-06T10:01:29.867Z,101368.30
2022-10-06T10:06:36.355Z,101377.11
2022-10-06T10:12:01.272Z,101384.83
2022-10-06T10:17:15.593Z,101386.98
2022-10-06T10:22:24.253Z,101387.05
2022-10-06T10:27:39.733Z,101385.95
2022-10-06T10:33:00.947Z,101394.46
2022-10-06T10:38:14.940Z,101399.77
2022-10-06T10:43:31.853Z,101400.08
2022-10-06T10:48:44.722Z,101410.00
2022-10-06T10:53:54.165Z,101411.93
2022-10-06T10:59:15.229Z,101416.95
2022-10-06T11:05:36.248Z,101425.04
2022-10-06T11:10:48.151Z,101424.66
2022-10-06T11:16:08.097Z,101422.56
2022-10-06T11:21:17.936Z,101418.96
2022-10-06T11:26:41.571Z,101424.66
2022-10-06T11:31:57.338Z,101426.94
2022-10-06T11:37:12.115Z,101438.36
2022-10-06T11:42:25.860Z,101440.25
2022-10-06T11:47:37.017Z,101439.11
2022-10-06T11:52:52.496Z,101447.87
2022-10-06T12:03:48.691Z,101458.61
2022-10-06T12:08:54.340Z,101452.16
2022-10-06T12:15:06.562Z,101448.23
2022-10-06T12:19:33.914Z,101458.96
2022-10-06T12:25:12.603Z,101451.14
2022-10-06T12:30:24.783Z,101469.73
2022-10-06T12:35:34.174Z,101478.85
2022-10-06T12:40:47.163Z,101485.96
2022-10-06T12:45:58.155Z,101490.48
2022-10-06T12:51:13.140Z,101493.98
2022-10-06T12:56:28.409Z,101498.67
2022-10-06T13:01:34.436Z,101503.73
2022-10-06T13:06:48.645Z,101513.91
2022-10-06T13:11:54.615Z,101522.05
2022-10-06T13:17:03.345Z,101521.71
2022-10-06T13:22:13.353Z,101520.98
2022-10-06T13:27:19.314Z,101529.73
2022-10-06T13:32:27.554Z,101532.84
2022-10-06T13:37:33.843Z,101537.23
2022-10-06T13:42:39.820Z,101541.38
2022-10-06T13:47:45.799Z,101545.13
2022-10-06T13:52:51.727Z,101555.30
2022-10-06T13:58:09.997Z,101559.38
2022-10-06T14:03:25.438Z,101563.77
2022-10-06T14:08:32.423Z,101568.52
2022-10-06T14:13:47.435Z,101581.79
2022-10-06T14:18:59.793Z,101589.60
2022-10-06T14:24:21.301Z,101593.12
2022-10-06T14:29:27.598Z,101598.36
2022-10-06T14:34:33.443Z,101598.64
2022-10-06T14:39:39.671Z,101608.98
2022-10-06T14:44:46.077Z,101616.54
2022-10-06T14:49:53.008Z,101619.30
2022-10-06T14:54:59.214Z,101628.59
2022-10-06T15:00:08.986Z,101631.06
2022-10-06T15:05:14.837Z,101635.30
2022-10-06T15:10:20.689Z,101641.91
2022-10-06T15:15:26.489Z,101641.88
2022-10-06T15:20:33.542Z,101647.78
2022-10-06T15:25:57.999Z,101654.64
2022-10-06T15:31:03.978Z,101664.77
2022-10-06T15:36:21.814Z,101671.16
2022-10-06T15:41:27.874Z,101684.62
2022-10-06T15:46:36.152Z,101692.48
2022-10-06T15:51:52.621Z,101701.32
2022-10-06T15:57:00.409Z,101712.48
2022-10-06T16:02:14.377Z,101722.64
2022-10-06T16:07:21.201Z,101737.27
2022-10-06T16:12:28.612Z,101745.69
2022-10-06T16:17:35.243Z,101754.62
2022-10-06T16:22:41.545Z,101761.80
2022-10-06T16:27:50.119Z,101774.33
2022-10-06T16:32:55.904Z,101783.70
2022-10-06T16:38:01.627Z,101790.73
2022-10-06T16:43:07.510Z,101806.64
2022-10-06T16:48:13.312Z,101812.98
2022-10-06T16:53:20.742Z,101826.48
2022-10-06T16:58:26.638Z,101834.92
2022-10-06T17:03:32.675Z,101834.20
2022-10-06T17:08:39.087Z,101840.91
2022-10-06T17:13:46.246Z,101844.45
2022-10-06T17:18:54.014Z,101851.55
2022-10-06T17:24:02.761Z,101857.86
2022-10-06T17:29:12.893Z,101859.14
2022-10-06T17:34:22.438Z,101860.81
2022-10-06T17:39:30.571Z,101866.66
2022-10-06T17:44:36.690Z,101877.71
2022-10-06T17:49:42.696Z,101885.67
2022-10-06T17:54:48.528Z,101891.39
2022-10-06T17:59:56.053Z,101893.12
2022-10-06T18:05:02.438Z,101897.61
2022-10-06T18:10:27.817Z,101902.27
2022-10-06T18:15:37.129Z,101904.98
2022-10-06T18:20:42.841Z,101913.44
2022-10-06T18:25:51.644Z,101916.95
2022-10-06T18:30:58.024Z,101919.66
2022-10-06T18:36:14.381Z,101925.70
2022-10-06T18:41:22.351Z,101927.94
2022-10-06T18:46:47.927Z,101928.91
2022-10-06T18:51:58.325Z,101936.85
2022-10-06T18:57:04.437Z,101945.95
2022-10-06T19:02:11.396Z,101949.81
2022-10-06T19:07:17.245Z,101957.16
2022-10-06T19:12:22.917Z,101962.08
2022-10-06T19:17:28.678Z,101964.52
2022-10-06T19:22:34.786Z,101970.42
2022-10-06T19:27:41.047Z,101973.91
2022-10-06T19:32:48.703Z,101982.25
2022-10-06T19:37:54.626Z,101989.70
2022-10-06T19:43:00.482Z,101996.98
2022-10-06T19:48:06.389Z,101999.73
2022-10-06T19:53:12.482Z,102002.86
2022-10-06T19:58:18.193Z,102002.14
2022-10-06T20:03:24.075Z,102004.02
2022-10-06T20:08:30.804Z,102009.88
2022-10-06T20:13:39.066Z,102018.86
2022-10-06T20:18:46.394Z,102023.34
2022-10-06T20:23:55.422Z,102030.60
2022-10-06T20:29:05.097Z,102032.48
2022-10-06T20:34:14.075Z,102032.73
2022-10-06T20:39:40.527Z,102042.92
2022-10-06T20:44:46.324Z,102042.23
2022-10-06T20:49:55.032Z,102044.66
2022-10-06T20:55:00.854Z,102040.98
2022-10-06T21:00:08.674Z,102042.13
2022-10-06T21:05:14.656Z,102045.89
2022-10-06T21:10:20.621Z,102048.54
2022-10-06T21:15:26.617Z,102048.77
2022-10-06T21:20:32.415Z,102049.19
2022-10-06T21:25:39.008Z,102050.60
2022-10-06T21:30:45.868Z,102050.33
2022-10-06T21:35:59.964Z,102058.09
2022-10-06T21:41:26.532Z,102059.90
2022-10-06T21:46:34.664Z,102064.33
2022-10-06T21:51:41.972Z,102070.25
2022-10-06T21:56:48.383Z,102073.80
2022-10-06T22:01:54.273Z,102075.02
2022-10-06T22:06:59.988Z,102081.69
2022-10-06T22:12:06.713Z,102080.80
2022-10-06T22:17:15.249Z,102083.19
2022-10-06T22:22:21.106Z,102084.46
2022-10-06T22:27:27.005Z,102082.52
2022-10-06T22:32:32.976Z,102077.38
2022-10-06T22:37:38.721Z,102081.79
2022-10-06T22:42:44.816Z,102088.20
2022-10-06T22:47:50.696Z,102085.52
2022-10-06T22:52:56.552Z,102090.97
2022-10-06T22:58:02.412Z,102086.16
2022-10-06T23:03:10.102Z,102083.89
2022-10-06T23:08:15.972Z,102088.40
2022-10-06T23:13:21.943Z,102091.52
2022-10-06T23:18:27.812Z,102096.84
2022-10-06T23:23:34.504Z,102097.00
2022-10-06T23:28:41.295Z,102093.05
2022-10-06T23:33:47.304Z,102103.95
2022-10-06T23:38:53.607Z,102100.97
2022-10-06T23:43:59.708Z,102094.98
2022-10-06T23:49:05.943Z,102100.17
2022-10-06T23:54:12.419Z,102099.04
2022-10-06T23:59:18.485Z,102107.66
